Terminal Aerodrome Forecast
Issued by NWS

Home | Current Version | Previous Version | Text Only | Print | Product List | Glossary On
Versions: 1 2 3 4 5 6 7 8 9 10 11 12 13
155
FTUS44 KLIX 200520
TAFMCB
TAF
KMCB 200520Z 2006/2106 00000KT P6SM SKC
     FM201100 00000KT 1SM BR BKN008 BKN045
     FM201500 22004KT P6SM BKN015
     FM201700 22006KT P6SM SCT030 SCT100 PROB30 2018/2023 VRB15KT
      4SM -TSRA BKN030CB
     FM210030 VRB03KT P6SM SCT030 BKN100=

USA.gov is the U.S. government's official web portal to all federal, state and local government web resources and services.